Terminal Aerodrome Forecast
Issued by NWS

Home | Current Version | Previous Version | Text Only | Print | Product List | Glossary On
Versions: 1 2 3 4 5 6 7 8 9 10 11 12 13 14 15 16
696
FTUS43 KAPX 271120
TAFAPN
TAF
KAPN 271120Z 2712/2812 28005KT P6SM FEW120 SCT250
     FM271700 34005KT P6SM SCT050
     FM271800 35005KT P6SM SCT060
     FM272100 04008KT P6SM VCSH BKN060
     FM272300 02007KT P6SM VCSH BKN060
     FM280200 32004KT P6SM BKN040=

USA.gov is the U.S. government's official web portal to all federal, state and local government web resources and services.